sensor_id;sensor_type;location;lat;lon;timestamp;P1;durP1;ratioP1;P2;durP2;ratioP2
15486;SDS011;7845;53.698;10.078;2023-04-01T00:01:54;4.50;;;2.40;;
15486;SDS011;7845;53.698;10.078;2023-04-01T00:04:19;4.17;;;1.80;;
15486;SDS011;7845;53.698;10.078;2023-04-01T00:06:45;4.77;;;2.30;;
15486;SDS011;7845;53.698;10.078;2023-04-01T00:09:12;4.00;;;2.10;;
15486;SDS011;7845;53.698;10.078;2023-04-01T00:11:38;4.17;;;2.30;;
15486;SDS011;7845;53.698;10.078;2023-04-01T00:14:07;4.20;;;1.80;;
15486;SDS011;7845;53.698;10.078;2023-04-01T00:16:32;3.63;;;1.73;;
15486;SDS011;7845;53.698;10.078;2023-04-01T00:18:58;3.70;;;1.70;;
15486;SDS011;7845;53.698;10.078;2023-04-01T00:21:25;5.50;;;1.60;;
15486;SDS011;7845;53.698;10.078;2023-04-01T00:23:51;3.50;;;1.43;;
15486;SDS011;7845;53.698;10.078;2023-04-01T00:26:17;4.90;;;2.47;;
15486;SDS011;7845;53.698;10.078;2023-04-01T00:28:45;4.60;;;2.07;;
15486;SDS011;7845;53.698;10.078;2023-04-01T00:31:11;4.63;;;1.77;;
15486;SDS011;7845;53.698;10.078;2023-04-01T00:33:46;4.20;;;2.00;;
15486;SDS011;7845;53.698;10.078;2023-04-01T00:36:16;4.37;;;2.37;;
15486;SDS011;7845;53.698;10.078;2023-04-01T00:38:43;4.03;;;1.87;;
15486;SDS011;7845;53.698;10.078;2023-04-01T00:41:11;4.17;;;1.80;;
15486;SDS011;7845;53.698;10.078;2023-04-01T00:43:41;4.93;;;1.63;;
15486;SDS011;7845;53.698;10.078;2023-04-01T00:46:07;4.20;;;1.97;;
15486;SDS011;7845;53.698;10.078;2023-04-01T00:48:36;4.00;;;1.70;;
15486;SDS011;7845;53.698;10.078;2023-04-01T00:51:09;3.70;;;1.70;;
15486;SDS011;7845;53.698;10.078;2023-04-01T00:53:42;4.67;;;2.50;;
15486;SDS011;7845;53.698;10.078;2023-04-01T00:56:13;4.93;;;1.90;;
15486;SDS011;7845;53.698;10.078;2023-04-01T00:58:43;4.60;;;2.20;;
15486;SDS011;7845;53.698;10.078;2023-04-01T01:01:11;6.50;;;2.50;;
15486;SDS011;7845;53.698;10.078;2023-04-01T01:03:37;5.03;;;2.90;;
15486;SDS011;7845;53.698;10.078;2023-04-01T01:06:10;4.20;;;2.67;;
15486;SDS011;7845;53.698;10.078;2023-04-01T01:08:53;4.27;;;2.23;;
15486;SDS011;7845;53.698;10.078;2023-04-01T01:11:54;4.43;;;2.40;;
15486;SDS011;7845;53.698;10.078;2023-04-01T01:14:36;5.07;;;3.27;;
15486;SDS011;7845;53.698;10.078;2023-04-01T01:31:58;6.40;;;3.20;;
15486;SDS011;7845;53.698;10.078;2023-04-01T01:37:23;8.27;;;4.10;;
15486;SDS011;7845;53.698;10.078;2023-04-01T01:39:56;6.20;;;3.80;;
15486;SDS011;7845;53.698;10.078;2023-04-01T01:42:26;6.13;;;4.03;;
15486;SDS011;7845;53.698;10.078;2023-04-01T01:44:54;7.50;;;4.20;;
15486;SDS011;7845;53.698;10.078;2023-04-01T01:47:22;6.10;;;3.60;;
15486;SDS011;7845;53.698;10.078;2023-04-01T01:49:48;5.60;;;3.90;;
15486;SDS011;7845;53.698;10.078;2023-04-01T01:52:16;4.83;;;3.17;;
15486;SDS011;7845;53.698;10.078;2023-04-01T01:54:55;4.97;;;3.10;;
15486;SDS011;7845;53.698;10.078;2023-04-01T01:57:27;5.20;;;3.10;;
15486;SDS011;7845;53.698;10.078;2023-04-01T01:59:58;6.70;;;3.90;;
15486;SDS011;7845;53.698;10.078;2023-04-01T02:02:29;5.10;;;3.30;;
15486;SDS011;7845;53.698;10.078;2023-04-01T02:04:57;5.30;;;3.30;;
15486;SDS011;7845;53.698;10.078;2023-04-01T02:07:24;6.80;;;4.33;;
15486;SDS011;7845;53.698;10.078;2023-04-01T02:09:55;5.90;;;3.90;;
15486;SDS011;7845;53.698;10.078;2023-04-01T02:12:21;5.63;;;3.50;;
15486;SDS011;7845;53.698;10.078;2023-04-01T02:14:52;7.30;;;4.20;;
15486;SDS011;7845;53.698;10.078;2023-04-01T02:17:29;5.73;;;3.40;;
15486;SDS011;7845;53.698;10.078;2023-04-01T02:19:57;6.10;;;3.90;;
15486;SDS011;7845;53.698;10.078;2023-04-01T02:22:27;5.90;;;3.10;;
15486;SDS011;7845;53.698;10.078;2023-04-01T02:24:57;6.10;;;3.90;;
15486;SDS011;7845;53.698;10.078;2023-04-01T02:27:26;5.57;;;3.60;;
15486;SDS011;7845;53.698;10.078;2023-04-01T02:29:51;7.63;;;4.17;;
15486;SDS011;7845;53.698;10.078;2023-04-01T02:32:18;6.47;;;3.90;;
15486;SDS011;7845;53.698;10.078;2023-04-01T02:34:47;8.63;;;4.10;;
15486;SDS011;7845;53.698;10.078;2023-04-01T02:37:13;8.03;;;4.33;;
15486;SDS011;7845;53.698;10.078;2023-04-01T02:39:42;5.90;;;3.53;;
15486;SDS011;7845;53.698;10.078;2023-04-01T02:42:09;7.00;;;4.10;;
15486;SDS011;7845;53.698;10.078;2023-04-01T02:44:35;6.37;;;3.47;;
15486;SDS011;7845;53.698;10.078;2023-04-01T02:47:03;6.20;;;3.87;;
15486;SDS011;7845;53.698;10.078;2023-04-01T02:49:28;5.00;;;2.83;;
15486;SDS011;7845;53.698;10.078;2023-04-01T02:51:54;6.03;;;3.70;;
15486;SDS011;7845;53.698;10.078;2023-04-01T02:54:19;6.03;;;4.40;;
15486;SDS011;7845;53.698;10.078;2023-04-01T02:56:45;6.37;;;4.20;;
15486;SDS011;7845;53.698;10.078;2023-04-01T02:59:10;6.87;;;4.50;;
15486;SDS011;7845;53.698;10.078;2023-04-01T03:01:36;7.93;;;5.20;;
15486;SDS011;7845;53.698;10.078;2023-04-01T03:04:02;6.23;;;3.57;;
15486;SDS011;7845;53.698;10.078;2023-04-01T03:06:28;6.80;;;4.70;;
15486;SDS011;7845;53.698;10.078;2023-04-01T03:08:54;7.97;;;4.40;;
15486;SDS011;7845;53.698;10.078;2023-04-01T03:11:21;5.90;;;3.87;;
15486;SDS011;7845;53.698;10.078;2023-04-01T03:13:46;7.90;;;4.87;;
15486;SDS011;7845;53.698;10.078;2023-04-01T03:16:12;7.90;;;5.17;;
15486;SDS011;7845;53.698;10.078;2023-04-01T03:18:39;6.80;;;4.50;;
15486;SDS011;7845;53.698;10.078;2023-04-01T03:21:13;6.10;;;4.00;;
15486;SDS011;7845;53.698;10.078;2023-04-01T03:23:40;6.60;;;4.27;;
15486;SDS011;7845;53.698;10.078;2023-04-01T03:26:05;5.93;;;3.67;;
15486;SDS011;7845;53.698;10.078;2023-04-01T03:28:34;8.40;;;5.67;;
15486;SDS011;7845;53.698;10.078;2023-04-01T03:31:00;6.83;;;4.80;;
15486;SDS011;7845;53.698;10.078;2023-04-01T03:33:26;5.90;;;4.00;;
15486;SDS011;7845;53.698;10.078;2023-04-01T03:35:51;6.87;;;4.20;;
15486;SDS011;7845;53.698;10.078;2023-04-01T03:38:17;7.83;;;5.03;;
15486;SDS011;7845;53.698;10.078;2023-04-01T03:40:43;5.83;;;3.80;;
15486;SDS011;7845;53.698;10.078;2023-04-01T03:43:10;6.60;;;3.90;;
15486;SDS011;7845;53.698;10.078;2023-04-01T03:45:42;8.77;;;5.70;;
15486;SDS011;7845;53.698;10.078;2023-04-01T03:48:08;6.67;;;4.50;;
15486;SDS011;7845;53.698;10.078;2023-04-01T03:50:35;6.60;;;4.83;;
15486;SDS011;7845;53.698;10.078;2023-04-01T03:53:01;6.20;;;4.13;;
15486;SDS011;7845;53.698;10.078;2023-04-01T03:55:29;7.20;;;5.03;;
15486;SDS011;7845;53.698;10.078;2023-04-01T03:57:54;8.83;;;6.40;;
15486;SDS011;7845;53.698;10.078;2023-04-01T04:00:19;5.90;;;3.97;;
15486;SDS011;7845;53.698;10.078;2023-04-01T04:02:47;7.37;;;5.60;;
15486;SDS011;7845;53.698;10.078;2023-04-01T04:05:13;7.60;;;4.87;;
15486;SDS011;7845;53.698;10.078;2023-04-01T04:07:40;7.13;;;4.27;;
15486;SDS011;7845;53.698;10.078;2023-04-01T04:10:06;6.23;;;4.43;;
15486;SDS011;7845;53.698;10.078;2023-04-01T04:12:31;5.30;;;3.70;;
15486;SDS011;7845;53.698;10.078;2023-04-01T04:14:57;5.30;;;3.70;;
15486;SDS011;7845;53.698;10.078;2023-04-01T04:17:23;5.00;;;3.20;;
15486;SDS011;7845;53.698;10.078;2023-04-01T04:19:48;4.97;;;3.20;;
15486;SDS011;7845;53.698;10.078;2023-04-01T04:22:13;5.93;;;4.10;;
15486;SDS011;7845;53.698;10.078;2023-04-01T04:24:39;4.53;;;3.20;;
15486;SDS011;7845;53.698;10.078;2023-04-01T04:27:04;4.53;;;2.60;;
15486;SDS011;7845;53.698;10.078;2023-04-01T04:29:30;4.00;;;2.57;;
15486;SDS011;7845;53.698;10.078;2023-04-01T04:31:55;5.53;;;3.10;;
15486;SDS011;7845;53.698;10.078;2023-04-01T04:34:21;4.57;;;2.53;;
15486;SDS011;7845;53.698;10.078;2023-04-01T04:36:47;4.30;;;3.33;;
15486;SDS011;7845;53.698;10.078;2023-04-01T04:39:13;4.27;;;2.20;;
15486;SDS011;7845;53.698;10.078;2023-04-01T04:41:38;5.83;;;2.13;;
15486;SDS011;7845;53.698;10.078;2023-04-01T04:44:03;4.17;;;2.30;;
15486;SDS011;7845;53.698;10.078;2023-04-01T04:46:30;5.67;;;2.77;;
15486;SDS011;7845;53.698;10.078;2023-04-01T04:48:55;4.17;;;2.40;;
15486;SDS011;7845;53.698;10.078;2023-04-01T04:51:21;4.13;;;2.50;;
15486;SDS011;7845;53.698;10.078;2023-04-01T04:53:47;4.10;;;2.40;;
15486;SDS011;7845;53.698;10.078;2023-04-01T04:56:19;5.20;;;3.23;;
15486;SDS011;7845;53.698;10.078;2023-04-01T04:58:46;4.30;;;2.43;;
15486;SDS011;7845;53.698;10.078;2023-04-01T05:01:13;4.23;;;2.47;;
15486;SDS011;7845;53.698;10.078;2023-04-01T05:03:40;4.27;;;2.93;;
15486;SDS011;7845;53.698;10.078;2023-04-01T05:06:06;4.40;;;2.53;;
15486;SDS011;7845;53.698;10.078;2023-04-01T05:08:33;4.40;;;2.23;;
15486;SDS011;7845;53.698;10.078;2023-04-01T05:11:06;5.10;;;2.90;;
15486;SDS011;7845;53.698;10.078;2023-04-01T05:13:35;4.27;;;2.03;;
15486;SDS011;7845;53.698;10.078;2023-04-01T05:16:00;4.40;;;2.40;;
15486;SDS011;7845;53.698;10.078;2023-04-01T05:18:26;3.67;;;2.07;;
15486;SDS011;7845;53.698;10.078;2023-04-01T05:20:52;3.50;;;2.00;;
15486;SDS011;7845;53.698;10.078;2023-04-01T05:23:21;4.00;;;2.00;;
15486;SDS011;7845;53.698;10.078;2023-04-01T05:25:47;3.37;;;1.80;;
15486;SDS011;7845;53.698;10.078;2023-04-01T05:28:13;4.07;;;2.20;;
15486;SDS011;7845;53.698;10.078;2023-04-01T05:30:40;4.03;;;2.20;;
15486;SDS011;7845;53.698;10.078;2023-04-01T05:33:07;6.07;;;2.30;;
15486;SDS011;7845;53.698;10.078;2023-04-01T05:35:32;4.70;;;2.33;;
15486;SDS011;7845;53.698;10.078;2023-04-01T05:37:58;4.50;;;2.60;;
15486;SDS011;7845;53.698;10.078;2023-04-01T05:40:23;3.90;;;2.10;;
15486;SDS011;7845;53.698;10.078;2023-04-01T05:42:50;3.30;;;1.80;;
15486;SDS011;7845;53.698;10.078;2023-04-01T05:45:17;4.03;;;2.13;;
15486;SDS011;7845;53.698;10.078;2023-04-01T05:47:43;4.50;;;2.30;;
15486;SDS011;7845;53.698;10.078;2023-04-01T05:50:12;3.80;;;1.97;;
15486;SDS011;7845;53.698;10.078;2023-04-01T05:52:40;3.50;;;1.83;;
15486;SDS011;7845;53.698;10.078;2023-04-01T05:55:07;3.40;;;1.40;;
15486;SDS011;7845;53.698;10.078;2023-04-01T05:57:34;3.50;;;1.80;;
15486;SDS011;7845;53.698;10.078;2023-04-01T05:59:59;3.60;;;1.87;;
15486;SDS011;7845;53.698;10.078;2023-04-01T06:02:27;3.97;;;1.80;;
15486;SDS011;7845;53.698;10.078;2023-04-01T06:04:54;3.30;;;1.77;;
15486;SDS011;7845;53.698;10.078;2023-04-01T06:07:28;3.50;;;1.70;;
15486;SDS011;7845;53.698;10.078;2023-04-01T06:09:54;3.30;;;1.73;;
15486;SDS011;7845;53.698;10.078;2023-04-01T06:15:05;3.43;;;1.80;;
15486;SDS011;7845;53.698;10.078;2023-04-01T06:20:46;3.37;;;1.57;;
15486;SDS011;7845;53.698;10.078;2023-04-01T06:23:33;3.33;;;1.50;;
15486;SDS011;7845;53.698;10.078;2023-04-01T06:34:47;3.50;;;1.70;;
15486;SDS011;7845;53.698;10.078;2023-04-01T06:43:12;3.60;;;1.60;;
15486;SDS011;7845;53.698;10.078;2023-04-01T06:46:03;3.60;;;1.73;;
15486;SDS011;7845;53.698;10.078;2023-04-01T06:48:40;3.23;;;1.60;;
15486;SDS011;7845;53.698;10.078;2023-04-01T06:51:21;3.30;;;1.50;;
15486;SDS011;7845;53.698;10.078;2023-04-01T06:54:13;3.10;;;1.70;;
15486;SDS011;7845;53.698;10.078;2023-04-01T06:56:44;3.13;;;1.57;;
15486;SDS011;7845;53.698;10.078;2023-04-01T06:59:19;4.50;;;1.70;;
15486;SDS011;7845;53.698;10.078;2023-04-01T07:01:49;3.27;;;1.50;;
15486;SDS011;7845;53.698;10.078;2023-04-01T07:04:19;5.00;;;1.67;;
15486;SDS011;7845;53.698;10.078;2023-04-01T07:06:50;4.43;;;1.97;;
15486;SDS011;7845;53.698;10.078;2023-04-01T07:09:21;3.70;;;1.60;;
15486;SDS011;7845;53.698;10.078;2023-04-01T07:11:51;3.40;;;1.40;;
15486;SDS011;7845;53.698;10.078;2023-04-01T07:14:26;3.20;;;1.30;;
15486;SDS011;7845;53.698;10.078;2023-04-01T07:16:59;3.20;;;1.47;;
15486;SDS011;7845;53.698;10.078;2023-04-01T07:19:50;3.63;;;1.93;;
15486;SDS011;7845;53.698;10.078;2023-04-01T07:22:35;3.30;;;1.40;;
15486;SDS011;7845;53.698;10.078;2023-04-01T07:25:16;3.73;;;1.60;;
15486;SDS011;7845;53.698;10.078;2023-04-01T07:28:12;3.00;;;1.50;;
15486;SDS011;7845;53.698;10.078;2023-04-01T07:33:39;4.30;;;1.70;;
15486;SDS011;7845;53.698;10.078;2023-04-01T07:45:06;5.47;;;1.80;;
15486;SDS011;7845;53.698;10.078;2023-04-01T07:50:34;3.97;;;2.17;;
15486;SDS011;7845;53.698;10.078;2023-04-01T08:02:05;3.40;;;1.97;;
15486;SDS011;7845;53.698;10.078;2023-04-01T08:07:09;3.30;;;2.07;;
15486;SDS011;7845;53.698;10.078;2023-04-01T08:09:42;3.10;;;1.40;;
15486;SDS011;7845;53.698;10.078;2023-04-01T08:12:21;3.20;;;1.60;;
15486;SDS011;7845;53.698;10.078;2023-04-01T08:17:54;3.67;;;1.60;;
15486;SDS011;7845;53.698;10.078;2023-04-01T08:22:57;4.10;;;1.87;;
15486;SDS011;7845;53.698;10.078;2023-04-01T08:25:29;6.03;;;1.83;;
15486;SDS011;7845;53.698;10.078;2023-04-01T08:30:41;3.33;;;1.37;;
15486;SDS011;7845;53.698;10.078;2023-04-01T08:33:15;3.10;;;1.40;;
15486;SDS011;7845;53.698;10.078;2023-04-01T08:35:59;3.00;;;1.20;;
15486;SDS011;7845;53.698;10.078;2023-04-01T08:38:46;3.10;;;1.10;;
15486;SDS011;7845;53.698;10.078;2023-04-01T08:44:24;3.60;;;1.70;;
15486;SDS011;7845;53.698;10.078;2023-04-01T08:52:36;4.90;;;2.20;;
15486;SDS011;7845;53.698;10.078;2023-04-01T09:03:10;3.20;;;1.77;;
15486;SDS011;7845;53.698;10.078;2023-04-01T09:08:51;4.60;;;2.10;;
15486;SDS011;7845;53.698;10.078;2023-04-01T09:11:53;3.60;;;1.40;;
15486;SDS011;7845;53.698;10.078;2023-04-01T09:20:58;3.10;;;1.40;;
15486;SDS011;7845;53.698;10.078;2023-04-01T09:26:29;2.90;;;1.10;;
15486;SDS011;7845;53.698;10.078;2023-04-01T09:29:20;3.33;;;1.47;;
15486;SDS011;7845;53.698;10.078;2023-04-01T09:48:38;3.03;;;1.20;;
15486;SDS011;7845;53.698;10.078;2023-04-01T09:51:20;3.20;;;1.63;;
15486;SDS011;7845;53.698;10.078;2023-04-01T10:20:08;2.90;;;1.13;;
15486;SDS011;7845;53.698;10.078;2023-04-01T10:23:07;3.03;;;1.20;;
15486;SDS011;7845;53.698;10.078;2023-04-01T10:28:42;3.40;;;1.57;;
15486;SDS011;7845;53.698;10.078;2023-04-01T10:34:40;3.10;;;1.50;;
15486;SDS011;7845;53.698;10.078;2023-04-01T10:42:45;2.90;;;1.20;;
15486;SDS011;7845;53.698;10.078;2023-04-01T10:45:34;3.43;;;1.50;;
15486;SDS011;7845;53.698;10.078;2023-04-01T10:48:21;5.03;;;1.67;;
15486;SDS011;7845;53.698;10.078;2023-04-01T10:51:04;3.70;;;1.70;;
15486;SDS011;7845;53.698;10.078;2023-04-01T10:53:42;3.27;;;1.53;;
15486;SDS011;7845;53.698;10.078;2023-04-01T11:02:25;3.70;;;1.87;;
15486;SDS011;7845;53.698;10.078;2023-04-01T11:05:14;4.40;;;2.37;;
15486;SDS011;7845;53.698;10.078;2023-04-01T11:08:08;4.03;;;2.33;;
15486;SDS011;7845;53.698;10.078;2023-04-01T11:13:34;4.27;;;2.53;;
15486;SDS011;7845;53.698;10.078;2023-04-01T11:27:55;6.83;;;3.70;;
15486;SDS011;7845;53.698;10.078;2023-04-01T11:42:07;5.00;;;2.70;;
15486;SDS011;7845;53.698;10.078;2023-04-01T11:44:44;5.30;;;3.00;;
15486;SDS011;7845;53.698;10.078;2023-04-01T11:58:30;5.07;;;2.93;;
15486;SDS011;7845;53.698;10.078;2023-04-01T12:09:52;5.20;;;3.40;;
15486;SDS011;7845;53.698;10.078;2023-04-01T12:12:39;7.87;;;4.10;;
15486;SDS011;7845;53.698;10.078;2023-04-01T12:18:13;7.13;;;4.00;;
15486;SDS011;7845;53.698;10.078;2023-04-01T12:21:02;5.40;;;3.70;;
15486;SDS011;7845;53.698;10.078;2023-04-01T12:32:57;5.17;;;3.90;;
15486;SDS011;7845;53.698;10.078;2023-04-01T12:35:59;6.17;;;3.57;;
15486;SDS011;7845;53.698;10.078;2023-04-01T12:38:31;5.40;;;3.57;;
15486;SDS011;7845;53.698;10.078;2023-04-01T12:41:09;6.20;;;4.10;;
15486;SDS011;7845;53.698;10.078;2023-04-01T12:46:53;5.87;;;3.50;;
15486;SDS011;7845;53.698;10.078;2023-04-01T12:52:50;7.73;;;5.60;;
15486;SDS011;7845;53.698;10.078;2023-04-01T12:55:41;8.03;;;3.40;;
15486;SDS011;7845;53.698;10.078;2023-04-01T13:01:10;5.60;;;3.80;;
15486;SDS011;7845;53.698;10.078;2023-04-01T13:07:05;7.57;;;3.37;;
15486;SDS011;7845;53.698;10.078;2023-04-01T13:10:02;6.70;;;4.10;;
15486;SDS011;7845;53.698;10.078;2023-04-01T13:16:03;7.40;;;3.40;;
15486;SDS011;7845;53.698;10.078;2023-04-01T13:18:45;6.80;;;3.97;;
15486;SDS011;7845;53.698;10.078;2023-04-01T13:30:18;8.00;;;3.47;;
15486;SDS011;7845;53.698;10.078;2023-04-01T13:32:50;5.87;;;3.70;;
15486;SDS011;7845;53.698;10.078;2023-04-01T13:44:13;5.90;;;3.53;;
15486;SDS011;7845;53.698;10.078;2023-04-01T13:49:40;6.33;;;3.87;;
15486;SDS011;7845;53.698;10.078;2023-04-01T13:52:30;4.80;;;3.27;;
15486;SDS011;7845;53.698;10.078;2023-04-01T14:03:37;6.70;;;2.87;;
15486;SDS011;7845;53.698;10.078;2023-04-01T14:17:51;6.90;;;4.60;;
15486;SDS011;7845;53.698;10.078;2023-04-01T14:20:34;8.03;;;4.10;;
15486;SDS011;7845;53.698;10.078;2023-04-01T14:29:09;5.90;;;3.63;;
15486;SDS011;7845;53.698;10.078;2023-04-01T14:32:24;7.33;;;3.83;;
15486;SDS011;7845;53.698;10.078;2023-04-01T14:35:21;9.57;;;4.17;;
15486;SDS011;7845;53.698;10.078;2023-04-01T14:52:10;5.60;;;3.70;;
15486;SDS011;7845;53.698;10.078;2023-04-01T14:54:36;7.07;;;3.10;;
15486;SDS011;7845;53.698;10.078;2023-04-01T14:57:12;5.93;;;4.10;;
15486;SDS011;7845;53.698;10.078;2023-04-01T14:59:46;8.73;;;4.13;;
15486;SDS011;7845;53.698;10.078;2023-04-01T15:05:10;5.90;;;3.67;;
15486;SDS011;7845;53.698;10.078;2023-04-01T15:07:46;8.10;;;3.90;;
15486;SDS011;7845;53.698;10.078;2023-04-01T15:13:12;7.30;;;4.17;;
15486;SDS011;7845;53.698;10.078;2023-04-01T15:15:44;8.40;;;3.83;;
15486;SDS011;7845;53.698;10.078;2023-04-01T15:18:31;6.67;;;3.87;;
15486;SDS011;7845;53.698;10.078;2023-04-01T15:24:24;8.20;;;3.77;;
15486;SDS011;7845;53.698;10.078;2023-04-01T15:32:48;7.70;;;4.30;;
15486;SDS011;7845;53.698;10.078;2023-04-01T15:38:25;6.47;;;3.57;;
15486;SDS011;7845;53.698;10.078;2023-04-01T15:47:24;11.60;;;4.37;;
15486;SDS011;7845;53.698;10.078;2023-04-01T15:50:03;8.23;;;4.83;;
15486;SDS011;7845;53.698;10.078;2023-04-01T15:52:49;5.43;;;3.50;;
15486;SDS011;7845;53.698;10.078;2023-04-01T15:55:26;7.70;;;4.50;;
15486;SDS011;7845;53.698;10.078;2023-04-01T15:58:11;12.23;;;5.60;;
15486;SDS011;7845;53.698;10.078;2023-04-01T16:09:13;9.03;;;5.47;;
15486;SDS011;7845;53.698;10.078;2023-04-01T16:15:15;7.47;;;5.00;;
15486;SDS011;7845;53.698;10.078;2023-04-01T16:20:51;8.40;;;5.30;;
15486;SDS011;7845;53.698;10.078;2023-04-01T16:23:49;7.07;;;5.03;;
15486;SDS011;7845;53.698;10.078;2023-04-01T16:29:32;9.93;;;5.60;;
15486;SDS011;7845;53.698;10.078;2023-04-01T16:34:47;8.20;;;5.63;;
15486;SDS011;7845;53.698;10.078;2023-04-01T16:37:49;11.40;;;5.53;;
15486;SDS011;7845;53.698;10.078;2023-04-01T16:43:13;6.87;;;4.60;;
15486;SDS011;7845;53.698;10.078;2023-04-01T16:51:42;8.50;;;3.90;;
15486;SDS011;7845;53.698;10.078;2023-04-01T16:54:31;9.67;;;4.53;;
15486;SDS011;7845;53.698;10.078;2023-04-01T17:02:03;7.23;;;4.90;;
15486;SDS011;7845;53.698;10.078;2023-04-01T17:04:45;6.23;;;4.00;;
15486;SDS011;7845;53.698;10.078;2023-04-01T17:10:14;7.60;;;4.00;;
15486;SDS011;7845;53.698;10.078;2023-04-01T17:21:45;8.80;;;3.70;;
15486;SDS011;7845;53.698;10.078;2023-04-01T17:43:43;4.77;;;3.00;;
15486;SDS011;7845;53.698;10.078;2023-04-01T17:48:56;6.50;;;2.90;;
15486;SDS011;7845;53.698;10.078;2023-04-01T17:51:43;6.97;;;2.87;;
15486;SDS011;7845;53.698;10.078;2023-04-01T17:54:31;6.03;;;3.20;;
15486;SDS011;7845;53.698;10.078;2023-04-01T18:00:06;5.90;;;3.53;;
15486;SDS011;7845;53.698;10.078;2023-04-01T18:02:43;7.60;;;3.73;;
15486;SDS011;7845;53.698;10.078;2023-04-01T18:05:37;5.57;;;3.40;;
15486;SDS011;7845;53.698;10.078;2023-04-01T18:08:15;6.33;;;2.90;;
15486;SDS011;7845;53.698;10.078;2023-04-01T18:19:18;4.93;;;3.43;;
15486;SDS011;7845;53.698;10.078;2023-04-01T18:28:11;5.93;;;2.90;;
15486;SDS011;7845;53.698;10.078;2023-04-01T18:30:59;5.30;;;3.33;;
15486;SDS011;7845;53.698;10.078;2023-04-01T18:39:32;7.40;;;3.20;;
15486;SDS011;7845;53.698;10.078;2023-04-01T18:50:44;6.53;;;3.40;;
15486;SDS011;7845;53.698;10.078;2023-04-01T18:53:23;7.00;;;3.30;;
15486;SDS011;7845;53.698;10.078;2023-04-01T18:56:03;5.90;;;3.20;;
15486;SDS011;7845;53.698;10.078;2023-04-01T18:58:35;8.70;;;3.83;;
15486;SDS011;7845;53.698;10.078;2023-04-01T19:03:57;6.90;;;3.60;;
15486;SDS011;7845;53.698;10.078;2023-04-01T19:20:46;5.67;;;3.23;;
15486;SDS011;7845;53.698;10.078;2023-04-01T19:34:27;5.67;;;3.10;;
15486;SDS011;7845;53.698;10.078;2023-04-01T19:37:09;6.17;;;3.20;;
15486;SDS011;7845;53.698;10.078;2023-04-01T19:45:26;7.53;;;3.00;;
15486;SDS011;7845;53.698;10.078;2023-04-01T19:48:03;7.07;;;3.00;;
15486;SDS011;7845;53.698;10.078;2023-04-01T19:51:05;7.70;;;2.73;;
15486;SDS011;7845;53.698;10.078;2023-04-01T19:56:19;6.20;;;3.13;;
15486;SDS011;7845;53.698;10.078;2023-04-01T19:58:54;7.33;;;3.03;;
15486;SDS011;7845;53.698;10.078;2023-04-01T20:01:33;5.30;;;2.97;;
15486;SDS011;7845;53.698;10.078;2023-04-01T20:04:03;4.57;;;2.87;;
15486;SDS011;7845;53.698;10.078;2023-04-01T20:06:56;10.27;;;3.30;;
15486;SDS011;7845;53.698;10.078;2023-04-01T20:12:43;6.03;;;3.30;;
15486;SDS011;7845;53.698;10.078;2023-04-01T20:15:41;8.67;;;3.50;;
15486;SDS011;7845;53.698;10.078;2023-04-01T20:18:16;6.40;;;2.77;;
15486;SDS011;7845;53.698;10.078;2023-04-01T20:20:55;6.97;;;3.00;;
15486;SDS011;7845;53.698;10.078;2023-04-01T20:26:14;6.43;;;2.93;;
15486;SDS011;7845;53.698;10.078;2023-04-01T20:31:59;7.73;;;2.97;;
15486;SDS011;7845;53.698;10.078;2023-04-01T20:37:38;5.27;;;2.73;;
15486;SDS011;7845;53.698;10.078;2023-04-01T20:46:18;6.40;;;2.90;;
15486;SDS011;7845;53.698;10.078;2023-04-01T20:52:01;4.33;;;2.47;;
15486;SDS011;7845;53.698;10.078;2023-04-01T20:57:34;6.97;;;3.00;;
15486;SDS011;7845;53.698;10.078;2023-04-01T21:02:59;5.60;;;2.57;;
15486;SDS011;7845;53.698;10.078;2023-04-01T21:11:35;6.87;;;2.80;;
15486;SDS011;7845;53.698;10.078;2023-04-01T21:14:28;8.67;;;2.40;;
15486;SDS011;7845;53.698;10.078;2023-04-01T21:22:54;5.47;;;2.53;;
15486;SDS011;7845;53.698;10.078;2023-04-01T21:33:59;4.40;;;2.00;;
15486;SDS011;7845;53.698;10.078;2023-04-01T21:39:39;5.50;;;2.00;;
15486;SDS011;7845;53.698;10.078;2023-04-01T21:42:28;5.50;;;2.13;;
15486;SDS011;7845;53.698;10.078;2023-04-01T22:04:50;4.90;;;1.60;;
15486;SDS011;7845;53.698;10.078;2023-04-01T22:07:45;5.13;;;1.50;;
15486;SDS011;7845;53.698;10.078;2023-04-01T22:13:44;5.60;;;2.20;;
15486;SDS011;7845;53.698;10.078;2023-04-01T22:19:19;5.80;;;2.60;;
15486;SDS011;7845;53.698;10.078;2023-04-01T22:27:24;5.53;;;1.67;;
15486;SDS011;7845;53.698;10.078;2023-04-01T22:30:01;5.20;;;2.13;;
15486;SDS011;7845;53.698;10.078;2023-04-01T22:32:41;4.40;;;1.83;;
15486;SDS011;7845;53.698;10.078;2023-04-01T22:40:34;4.77;;;1.70;;
15486;SDS011;7845;53.698;10.078;2023-04-01T22:43:15;3.97;;;1.73;;
15486;SDS011;7845;53.698;10.078;2023-04-01T22:46:08;4.70;;;1.87;;
15486;SDS011;7845;53.698;10.078;2023-04-01T22:48:43;3.93;;;1.70;;
15486;SDS011;7845;53.698;10.078;2023-04-01T22:51:42;5.97;;;1.60;;
15486;SDS011;7845;53.698;10.078;2023-04-01T22:56:56;9.83;;;2.00;;
15486;SDS011;7845;53.698;10.078;2023-04-01T22:59:49;5.40;;;2.43;;
15486;SDS011;7845;53.698;10.078;2023-04-01T23:04:50;3.40;;;1.60;;
15486;SDS011;7845;53.698;10.078;2023-04-01T23:09:58;3.90;;;1.70;;
15486;SDS011;7845;53.698;10.078;2023-04-01T23:12:26;5.53;;;1.70;;
15486;SDS011;7845;53.698;10.078;2023-04-01T23:14:57;5.00;;;2.00;;
15486;SDS011;7845;53.698;10.078;2023-04-01T23:20:14;3.53;;;1.30;;
15486;SDS011;7845;53.698;10.078;2023-04-01T23:31:32;5.93;;;1.90;;
15486;SDS011;7845;53.698;10.078;2023-04-01T23:34:02;5.87;;;1.87;;
15486;SDS011;7845;53.698;10.078;2023-04-01T23:36:41;4.93;;;2.53;;
15486;SDS011;7845;53.698;10.078;2023-04-01T23:39:18;4.27;;;1.50;;
15486;SDS011;7845;53.698;10.078;2023-04-01T23:41:47;6.70;;;2.13;;
15486;SDS011;7845;53.698;10.078;2023-04-01T23:44:13;4.73;;;1.70;;
15486;SDS011;7845;53.698;10.078;2023-04-01T23:46:41;7.60;;;1.70;;
15486;SDS011;7845;53.698;10.078;2023-04-01T23:49:17;4.33;;;1.60;;
15486;SDS011;7845;53.698;10.078;2023-04-01T23:51:50;3.90;;;1.50;;
15486;SDS011;7845;53.698;10.078;2023-04-01T23:54:42;5.07;;;2.17;;
15486;SDS011;7845;53.698;10.078;2023-04-01T23:57:13;5.47;;;1.70;;
15486;SDS011;7845;53.698;10.078;2023-04-01T23:59:47;4.73;;;1.90;;
